createdAt,value
2019-01-21T00:01:02.403Z,53.43
2019-01-21T00:03:31.783Z,50.63
2019-01-21T00:06:01.231Z,49.13
2019-01-21T00:08:30.633Z,60.73
2019-01-21T00:11:00.007Z,53.70
2019-01-21T00:13:29.433Z,52.27
2019-01-21T00:15:58.812Z,53.40
2019-01-21T00:18:28.248Z,56.53
2019-01-21T00:20:57.604Z,49.13
2019-01-21T00:23:27.026Z,52.47
2019-01-21T00:25:56.428Z,52.40
2019-01-21T00:28:26.171Z,49.70
2019-01-21T00:30:55.552Z,47.53
2019-01-21T00:33:24.933Z,54.80
2019-01-21T00:35:54.335Z,53.70
2019-01-21T00:38:23.715Z,51.67
2019-01-21T00:40:53.490Z,50.43
2019-01-21T00:43:22.847Z,52.53
2019-01-21T00:45:52.235Z,54.27
2019-01-21T00:48:21.643Z,58.10
2019-01-21T00:50:51.094Z,52.73
2019-01-21T00:53:20.503Z,52.67
2019-01-21T00:55:49.889Z,52.37
2019-01-21T00:58:19.288Z,56.20
2019-01-21T01:00:48.674Z,52.43
2019-01-21T01:03:18.084Z,54.00
2019-01-21T01:05:47.454Z,54.50
2019-01-21T01:08:16.766Z,56.43
2019-01-21T01:10:46.187Z,59.53
2019-01-21T01:13:15.571Z,54.37
2019-01-21T01:15:44.987Z,60.87
2019-01-21T01:18:14.377Z,47.67
2019-01-21T01:20:43.812Z,53.57
2019-01-21T01:23:13.639Z,51.60
2019-01-21T01:25:43.084Z,51.03
2019-01-21T01:28:12.480Z,52.03
2019-01-21T01:30:41.880Z,59.33
2019-01-21T01:33:11.271Z,56.43
2019-01-21T01:35:41.064Z,56.70
2019-01-21T01:38:10.554Z,56.63
2019-01-21T01:40:39.964Z,56.20
2019-01-21T01:43:09.525Z,54.37
2019-01-21T01:45:39.174Z,61.47
2019-01-21T01:48:08.639Z,58.20
2019-01-21T01:50:38.147Z,64.07
2019-01-21T01:53:07.707Z,58.67
2019-01-21T01:55:37.194Z,52.10
2019-01-21T01:58:07.234Z,53.70
2019-01-21T02:00:37.463Z,54.87
2019-01-21T02:03:07.061Z,57.33
2019-01-21T02:05:36.440Z,57.93
2019-01-21T02:08:06.049Z,54.17
2019-01-21T02:10:35.525Z,59.17
2019-01-21T02:13:05.426Z,63.77
2019-01-21T02:15:34.855Z,55.67
2019-01-21T02:18:04.628Z,59.53
2019-01-21T02:20:34.035Z,58.00
2019-01-21T02:23:05.228Z,55.03
2019-01-21T02:25:53.500Z,60.97
2019-01-21T02:28:50.483Z,60.20
2019-01-21T02:32:03.721Z,55.50
2019-01-21T02:35:26.100Z,58.83
2019-01-21T02:38:14.616Z,59.20
2019-01-21T02:41:05.460Z,58.97
2019-01-21T02:44:21.985Z,62.03
2019-01-21T02:47:08.763Z,59.00
2019-01-21T02:50:26.929Z,57.33
2019-01-21T02:53:21.238Z,56.80
2019-01-21T02:56:37.908Z,55.63
2019-01-21T02:59:38.639Z,55.73
2019-01-21T03:03:09.880Z,54.73
2019-01-21T03:06:26.455Z,61.17
2019-01-21T03:09:38.084Z,60.03
2019-01-21T03:12:44.060Z,55.53
2019-01-21T03:15:43.098Z,54.87
2019-01-21T03:18:55.459Z,61.07
2019-01-21T03:21:51.312Z,57.47
2019-01-21T03:24:51.978Z,55.03
2019-01-21T03:28:09.988Z,59.47
2019-01-21T03:31:35.600Z,58.93
2019-01-21T03:34:41.054Z,60.23
2019-01-21T03:37:57.196Z,60.03
2019-01-21T03:40:47.320Z,64.27
2019-01-21T03:43:43.084Z,57.33
2019-01-21T03:46:55.026Z,64.33
2019-01-21T03:50:07.556Z,56.50
2019-01-21T03:53:12.255Z,61.00
2019-01-21T03:55:41.674Z,65.73
2019-01-21T03:58:56.931Z,56.20
2019-01-21T04:02:03.465Z,59.57
2019-01-21T04:04:52.331Z,59.73
2019-01-21T04:07:45.279Z,64.80
2019-01-21T04:10:47.022Z,65.23
2019-01-21T04:13:49.484Z,69.67
2019-01-21T04:17:08.900Z,58.13
2019-01-21T04:19:49.892Z,58.13
2019-01-21T04:22:49.172Z,57.43
2019-01-21T04:25:45.339Z,61.33
2019-01-21T04:28:48.352Z,61.40
2019-01-21T04:31:53.910Z,61.87
2019-01-21T04:34:59.633Z,66.87
2019-01-21T04:38:04.057Z,67.97
2019-01-21T04:41:12.984Z,67.97
2019-01-21T04:44:08.190Z,62.77
2019-01-21T04:47:22.892Z,63.83
2019-01-21T04:50:38.369Z,68.60
2019-01-21T04:53:26.855Z,65.77
2019-01-21T04:56:39.129Z,68.23
2019-01-21T04:59:51.292Z,75.77
2019-01-21T05:03:13.443Z,72.13
2019-01-21T05:06:10.444Z,66.07
2019-01-21T05:09:26.868Z,68.00
2019-01-21T05:12:27.693Z,71.33
2019-01-21T05:15:39.675Z,66.77
2019-01-21T05:19:02.018Z,66.00
2019-01-21T05:22:18.041Z,65.67
2019-01-21T05:25:31.675Z,62.80
2019-01-21T05:28:11.920Z,71.07
2019-01-21T05:30:53.183Z,67.60
2019-01-21T05:34:12.396Z,65.37
2019-01-21T05:36:52.887Z,70.97
2019-01-21T05:40:01.301Z,64.67
2019-01-21T05:43:27.139Z,64.90
2019-01-21T05:46:58.359Z,66.57
2019-01-21T05:50:13.513Z,68.07
2019-01-21T05:53:38.956Z,65.80
2019-01-21T05:56:48.623Z,66.87
2019-01-21T05:59:53.949Z,69.50
2019-01-21T06:03:12.191Z,65.67
2019-01-21T06:06:28.276Z,60.97
2019-01-21T06:09:33.345Z,68.80
2019-01-21T06:12:36.947Z,65.07
2019-01-21T06:15:53.141Z,72.60
2019-01-21T06:18:39.984Z,69.50
2019-01-21T06:21:40.602Z,69.60
2019-01-21T06:24:38.415Z,68.90
2019-01-21T06:28:00.559Z,72.23
2019-01-21T06:31:22.640Z,71.50
2019-01-21T06:34:34.852Z,68.13
2019-01-21T06:38:04.018Z,64.83
2019-01-21T06:41:06.919Z,68.60
2019-01-21T06:44:23.451Z,72.33
2019-01-21T06:47:19.647Z,65.37
2019-01-21T06:50:46.408Z,65.60
2019-01-21T06:53:58.987Z,66.07
2019-01-21T06:57:07.723Z,68.73
2019-01-21T07:00:13.391Z,70.07
2019-01-21T07:03:37.539Z,69.50
2019-01-21T07:06:34.952Z,69.30
2019-01-21T07:09:43.515Z,70.93
2019-01-21T07:12:53.168Z,65.80
2019-01-21T07:15:50.318Z,60.00
2019-01-21T07:18:56.403Z,72.57
2019-01-21T07:22:15.540Z,68.53
2019-01-21T07:25:10.768Z,66.73
2019-01-21T07:28:23.571Z,66.13
2019-01-21T07:31:17.381Z,67.87
2019-01-21T07:34:33.744Z,75.13
2019-01-21T07:37:44.127Z,73.47
2019-01-21T07:40:56.027Z,84.30
2019-01-21T07:44:21.207Z,74.57
2019-01-21T07:47:26.059Z,73.87
2019-01-21T07:50:17.523Z,73.47
2019-01-21T07:53:29.763Z,74.13
2019-01-21T07:56:46.019Z,75.47
2019-01-21T07:59:44.967Z,70.63
2019-01-21T08:02:29.994Z,68.73
2019-01-21T08:05:42.323Z,73.50
2019-01-21T08:08:54.026Z,75.50
2019-01-21T08:12:13.395Z,71.37
2019-01-21T08:15:38.861Z,80.87
2019-01-21T08:18:48.071Z,79.37
2019-01-21T08:21:49.175Z,85.80
2019-01-21T08:24:54.356Z,72.80
2019-01-21T08:28:17.266Z,71.77
2019-01-21T08:31:27.785Z,70.83
2019-01-21T08:34:44.105Z,71.13
2019-01-21T08:37:55.236Z,73.63
2019-01-21T08:41:11.548Z,84.50
2019-01-21T08:44:30.631Z,75.60
2019-01-21T08:47:28.999Z,73.47
2019-01-21T08:50:43.679Z,76.10
2019-01-21T08:53:40.228Z,76.20
2019-01-21T08:56:50.527Z,69.63
2019-01-21T09:00:03.911Z,68.20
2019-01-21T09:03:17.117Z,67.57
2019-01-21T09:06:30.203Z,77.00
2019-01-21T09:09:33.404Z,70.73
2019-01-21T09:12:44.091Z,68.30
2019-01-21T09:15:47.145Z,66.63
2019-01-21T09:18:57.195Z,68.43
2019-01-21T09:21:57.675Z,68.50
2019-01-21T09:24:49.728Z,66.93
2019-01-21T09:27:40.808Z,76.40
2019-01-21T09:30:44.520Z,68.20
2019-01-21T09:33:49.991Z,73.73
2019-01-21T09:36:29.184Z,74.17
2019-01-21T09:39:13.522Z,74.57
2019-01-21T09:42:37.335Z,72.40
2019-01-21T09:45:50.718Z,71.73
2019-01-21T09:48:18.830Z,73.00
2019-01-21T09:50:49.213Z,69.87
2019-01-21T09:53:18.656Z,72.90
2019-01-21T09:55:50.481Z,72.67
2019-01-21T09:58:23.695Z,77.27
2019-01-21T10:00:53.210Z,76.60
2019-01-21T10:03:23.301Z,69.70
2019-01-21T10:05:58.204Z,69.63
2019-01-21T10:08:39.610Z,72.73
2019-01-21T10:11:36.061Z,63.00
2019-01-21T10:14:35.174Z,75.47
2019-01-21T10:17:17.809Z,67.53
2019-01-21T10:20:18.537Z,77.70
2019-01-21T10:23:42.587Z,77.87
2019-01-21T10:27:08.167Z,67.47
2019-01-21T10:30:30.844Z,75.53
2019-01-21T10:33:32.682Z,68.23
2019-01-21T10:36:41.997Z,68.60
2019-01-21T10:39:58.140Z,69.10
2019-01-21T10:43:09.007Z,62.23
2019-01-21T10:46:19.745Z,70.63
2019-01-21T10:49:22.271Z,68.97
2019-01-21T10:52:23.388Z,68.23
2019-01-21T10:55:08.399Z,69.20
2019-01-21T10:57:58.751Z,72.17
2019-01-21T11:01:15.251Z,67.53
2019-01-21T11:04:08.563Z,68.90
2019-01-21T11:07:42.659Z,73.50
2019-01-21T11:10:20.775Z,71.80
2019-01-21T11:13:00.187Z,68.20
2019-01-21T11:15:34.967Z,65.53
2019-01-21T11:18:31.795Z,74.70
2019-01-21T11:21:49.873Z,71.57
2019-01-21T11:24:58.064Z,68.00
2019-01-21T11:28:09.999Z,72.10
2019-01-21T11:31:03.690Z,69.33
2019-01-21T11:34:03.259Z,70.73
2019-01-21T11:37:24.284Z,68.17
2019-01-21T11:40:43.507Z,69.23
2019-01-21T11:43:47.190Z,68.20
2019-01-21T11:46:48.872Z,69.57
2019-01-21T11:49:46.316Z,67.07
2019-01-21T11:52:49.368Z,70.93
2019-01-21T11:55:51.216Z,68.23
2019-01-21T11:58:58.983Z,66.23
2019-01-21T12:02:15.012Z,79.47
2019-01-21T12:05:12.332Z,65.47
2019-01-21T12:08:16.400Z,71.20
2019-01-21T12:11:12.363Z,72.37
2019-01-21T12:14:08.250Z,64.83
2019-01-21T12:17:05.921Z,70.40
2019-01-21T12:20:06.823Z,67.93
2019-01-21T12:23:06.476Z,67.63
2019-01-21T12:25:45.384Z,63.33
2019-01-21T12:28:52.499Z,68.93
2019-01-21T12:31:49.825Z,68.90
2019-01-21T12:34:43.309Z,66.67
2019-01-21T12:37:25.034Z,77.60
2019-01-21T12:40:39.351Z,67.77
2019-01-21T12:43:46.447Z,73.03
2019-01-21T12:46:28.111Z,69.93
2019-01-21T12:49:14.508Z,68.17
2019-01-21T12:52:20.896Z,68.70
2019-01-21T12:55:31.124Z,67.70
2019-01-21T12:58:43.410Z,70.13
2019-01-21T13:01:21.959Z,59.60
2019-01-21T13:04:31.676Z,66.57
2019-01-21T13:07:32.264Z,74.77
2019-01-21T13:10:47.654Z,59.37
2019-01-21T13:13:52.752Z,66.53
2019-01-21T13:16:55.471Z,70.17
2019-01-21T13:20:09.443Z,68.50
2019-01-21T13:22:51.566Z,64.50
2019-01-21T13:25:53.425Z,64.23
2019-01-21T13:29:03.796Z,62.77
2019-01-21T13:31:56.567Z,62.60
2019-01-21T13:35:01.012Z,65.73
2019-01-21T13:37:52.122Z,70.77
2019-01-21T13:41:23.599Z,65.93
2019-01-21T13:44:37.484Z,74.03
2019-01-21T13:47:44.075Z,59.27
2019-01-21T13:50:50.278Z,65.93
2019-01-21T13:54:18.523Z,59.87
2019-01-21T13:57:14.971Z,60.60
2019-01-21T14:00:27.002Z,65.33
2019-01-21T14:03:32.919Z,59.33
2019-01-21T14:06:58.424Z,67.20
2019-01-21T14:10:08.908Z,62.47
2019-01-21T14:13:19.532Z,78.93
2019-01-21T14:16:21.044Z,77.90
2019-01-21T14:19:02.362Z,61.17
2019-01-21T14:22:20.555Z,61.13
2019-01-21T14:25:42.748Z,69.37
2019-01-21T14:28:38.591Z,61.70
2019-01-21T14:32:07.588Z,66.40
2019-01-21T14:35:25.732Z,62.47
2019-01-21T14:38:35.358Z,72.87
2019-01-21T14:41:17.595Z,61.90
2019-01-21T14:44:41.764Z,63.97
2019-01-21T14:47:54.730Z,62.50
2019-01-21T14:51:02.318Z,65.80
2019-01-21T14:54:27.561Z,59.67
2019-01-21T14:57:40.395Z,62.80
2019-01-21T15:00:31.800Z,64.57
2019-01-21T15:03:30.478Z,65.90
2019-01-21T15:06:15.887Z,64.50
2019-01-21T15:08:58.456Z,69.07
2019-01-21T15:11:52.686Z,63.87
2019-01-21T15:15:12.019Z,64.13
2019-01-21T15:18:31.803Z,59.90
2019-01-21T15:21:06.787Z,66.57
2019-01-21T15:24:10.136Z,64.20
2019-01-21T15:27:04.478Z,63.63
2019-01-21T15:29:59.017Z,68.63
2019-01-21T15:32:42.083Z,72.17
2019-01-21T15:35:38.529Z,64.73
2019-01-21T15:39:15.730Z,68.07
2019-01-21T15:41:53.644Z,69.03
2019-01-21T15:45:14.925Z,71.83
2019-01-21T15:48:17.824Z,67.73
2019-01-21T15:51:26.683Z,71.10
2019-01-21T15:54:16.998Z,61.80
2019-01-21T15:57:14.088Z,65.60
2019-01-21T16:00:23.039Z,67.97
2019-01-21T16:03:24.680Z,66.43
2019-01-21T16:06:31.989Z,84.63
2019-01-21T16:09:48.254Z,77.57
2019-01-21T16:12:48.112Z,76.23
2019-01-21T16:15:58.714Z,73.73
2019-01-21T16:18:34.883Z,72.43
2019-01-21T16:21:43.903Z,78.93
2019-01-21T16:24:26.402Z,74.77
2019-01-21T16:27:08.245Z,75.20
2019-01-21T16:30:01.319Z,70.17
2019-01-21T16:33:22.695Z,66.80
2019-01-21T16:36:36.695Z,75.50
2019-01-21T16:39:39.059Z,73.27
2019-01-21T16:42:14.209Z,78.90
2019-01-21T16:44:45.449Z,76.63
2019-01-21T16:47:14.859Z,84.10
2019-01-21T16:49:44.295Z,71.90
2019-01-21T16:52:13.784Z,74.27
2019-01-21T16:54:43.201Z,71.93
2019-01-21T16:57:12.596Z,76.80
2019-01-21T16:59:41.988Z,74.30
2019-01-21T17:02:11.654Z,70.87
2019-01-21T17:04:41.041Z,72.20
2019-01-21T17:07:10.466Z,68.03
2019-01-21T17:09:39.848Z,65.77
2019-01-21T17:12:09.467Z,73.33
2019-01-21T17:14:38.876Z,68.43
2019-01-21T17:17:08.260Z,67.80
2019-01-21T17:19:37.663Z,76.10
2019-01-21T17:22:06.972Z,70.30
2019-01-21T17:24:36.377Z,77.27
2019-01-21T17:27:06.132Z,67.43
2019-01-21T17:29:35.576Z,78.73
2019-01-21T17:32:05.156Z,78.70
2019-01-21T17:34:34.547Z,71.97
2019-01-21T17:37:03.968Z,69.07
2019-01-21T17:39:33.367Z,73.03
2019-01-21T17:42:02.783Z,74.63
2019-01-21T17:44:32.207Z,76.83
2019-01-21T17:47:01.631Z,81.27
2019-01-21T17:49:31.028Z,80.53
2019-01-21T17:52:00.433Z,80.93
2019-01-21T17:54:34.803Z,81.57
2019-01-21T17:57:00.896Z,80.97
2019-01-21T17:59:30.328Z,85.43
2019-01-21T18:01:59.725Z,79.97
2019-01-21T18:04:29.140Z,78.13
2019-01-21T18:06:58.528Z,69.47
2019-01-21T18:09:27.945Z,86.20
2019-01-21T18:11:57.336Z,90.70
2019-01-21T18:14:26.717Z,80.17
2019-01-21T18:16:56.136Z,84.10
2019-01-21T18:19:25.540Z,90.47
2019-01-21T18:21:54.961Z,87.37
2019-01-21T18:24:24.347Z,82.50
2019-01-21T18:26:53.796Z,79.03
2019-01-21T18:29:24.321Z,76.20
2019-01-21T18:31:53.664Z,84.30
2019-01-21T18:34:23.078Z,80.67
2019-01-21T18:36:52.555Z,74.67
2019-01-21T18:39:21.983Z,81.23
2019-01-21T18:41:51.384Z,90.30
2019-01-21T18:44:20.852Z,92.47
2019-01-21T18:46:50.243Z,95.37
2019-01-21T18:49:22.942Z,91.33
2019-01-21T18:51:50.692Z,89.97
2019-01-21T18:54:20.100Z,91.17
2019-01-21T18:56:49.555Z,96.30
2019-01-21T18:59:18.988Z,90.77
2019-01-21T19:01:48.388Z,99.47
2019-01-21T19:04:17.769Z,102.97
2019-01-21T19:06:47.162Z,105.30
2019-01-21T19:09:16.535Z,100.47
2019-01-21T19:11:45.889Z,88.30
2019-01-21T19:14:15.279Z,86.23
2019-01-21T19:16:45.031Z,76.53
2019-01-21T19:19:14.431Z,81.13
2019-01-21T19:21:43.800Z,78.43
2019-01-21T19:24:13.225Z,82.40
2019-01-21T19:26:42.615Z,81.67
2019-01-21T19:29:12.042Z,77.60
2019-01-21T19:31:41.422Z,114.83
2019-01-21T19:34:10.841Z,156.30
2019-01-21T19:36:40.231Z,85.17
2019-01-21T19:39:10.152Z,80.40
2019-01-21T19:41:39.548Z,78.87
2019-01-21T19:44:08.996Z,91.47
2019-01-21T19:46:44.102Z,81.47
2019-01-21T19:49:09.512Z,82.17
2019-01-21T19:51:38.930Z,79.33
2019-01-21T19:54:08.256Z,80.60
2019-01-21T19:56:37.680Z,97.80
2019-01-21T19:59:07.127Z,82.63
2019-01-21T20:01:36.547Z,80.10
2019-01-21T20:04:06.007Z,80.90
2019-01-21T20:06:35.511Z,81.73
2019-01-21T20:09:07.102Z,82.40
2019-01-21T20:11:36.488Z,79.37
2019-01-21T20:14:06.126Z,66.80
2019-01-21T20:16:35.524Z,78.37
2019-01-21T20:19:04.951Z,72.83
2019-01-21T20:21:34.344Z,78.17
2019-01-21T20:24:03.963Z,77.20
2019-01-21T20:26:33.349Z,75.73
2019-01-21T20:29:02.796Z,73.63
2019-01-21T20:31:32.192Z,76.73
2019-01-21T20:34:01.674Z,68.30
2019-01-21T20:36:31.107Z,71.53
2019-01-21T20:39:00.503Z,63.60
2019-01-21T20:41:29.916Z,65.73
2019-01-21T20:43:59.331Z,62.53
2019-01-21T20:46:28.768Z,90.40
2019-01-21T20:51:34.205Z,60.53
2019-01-21T20:54:03.611Z,62.40
2019-01-21T20:56:33.031Z,65.47
2019-01-21T20:59:02.443Z,59.47
2019-01-21T21:01:31.841Z,63.67
2019-01-21T21:04:01.240Z,69.47
2019-01-21T21:06:30.686Z,66.43
2019-01-21T21:09:00.157Z,66.93
2019-01-21T21:11:29.585Z,66.57
2019-01-21T21:13:59.073Z,100.50
2019-01-21T21:16:28.500Z,65.70
2019-01-21T21:18:57.948Z,91.63
2019-01-21T21:21:27.412Z,68.73
2019-01-21T21:23:56.939Z,67.30
2019-01-21T21:26:26.416Z,61.50
2019-01-21T21:28:55.854Z,56.70
2019-01-21T21:31:25.379Z,65.07
2019-01-21T21:33:54.830Z,64.53
2019-01-21T21:36:24.264Z,69.30
2019-01-21T21:38:53.717Z,73.73
2019-01-21T21:41:23.162Z,62.90
2019-01-21T21:43:52.652Z,64.40
2019-01-21T21:46:22.113Z,71.70
2019-01-21T21:48:51.559Z,72.50
2019-01-21T21:51:21.052Z,52.67
2019-01-21T21:53:50.523Z,62.60
2019-01-21T21:56:19.954Z,57.70
2019-01-21T21:58:49.503Z,56.63
2019-01-21T22:01:23.921Z,60.53
2019-01-21T22:03:50.018Z,58.23
2019-01-21T22:06:19.487Z,55.70
2019-01-21T22:08:48.920Z,61.27
2019-01-21T22:11:18.429Z,55.87
2019-01-21T22:13:47.824Z,56.40
2019-01-21T22:16:17.375Z,57.10
2019-01-21T22:18:46.823Z,55.07
2019-01-21T22:21:16.267Z,51.43
2019-01-21T22:23:45.725Z,53.53
2019-01-21T22:26:15.115Z,52.17
2019-01-21T22:28:45.067Z,55.77
2019-01-21T22:31:14.471Z,49.73
2019-01-21T22:33:43.871Z,49.93
2019-01-21T22:36:13.291Z,47.17
2019-01-21T22:38:42.693Z,49.33
2019-01-21T22:41:12.391Z,50.23
2019-01-21T22:43:41.800Z,47.80
2019-01-21T22:46:11.549Z,53.30
2019-01-21T22:48:40.968Z,55.93
2019-01-21T22:51:10.429Z,45.77
2019-01-21T22:53:40.084Z,44.27
2019-01-21T22:56:09.476Z,54.17
2019-01-21T22:58:38.887Z,53.60
2019-01-21T23:01:33.947Z,54.20
2019-01-21T23:04:03.364Z,54.90
2019-01-21T23:06:32.767Z,46.30
2019-01-21T23:09:02.175Z,55.67
2019-01-21T23:11:31.567Z,81.07
2019-01-21T23:14:01.363Z,59.87
2019-01-21T23:16:30.769Z,57.87
2019-01-21T23:19:00.155Z,52.20
2019-01-21T23:21:29.551Z,56.43
2019-01-21T23:23:59.060Z,54.10
2019-01-21T23:26:28.480Z,56.23
2019-01-21T23:28:57.882Z,53.00
2019-01-21T23:31:27.542Z,54.30
2019-01-21T23:33:56.912Z,51.30
2019-01-21T23:36:26.415Z,54.77
2019-01-21T23:38:55.824Z,50.80
2019-01-21T23:41:25.218Z,47.67
2019-01-21T23:43:54.643Z,44.33
2019-01-21T23:46:24.027Z,46.53
2019-01-21T23:48:53.491Z,47.23
2019-01-21T23:51:22.950Z,55.27
2019-01-21T23:53:52.411Z,58.07
2019-01-21T23:56:21.814Z,51.97
2019-01-21T23:58:51.512Z,46.83
